Time;durP1;ratioP1;P1;durP2;ratioP2;P2;SDS_P1;SDS_P2;PMS_P1;PMS_P2;Temp;Humidity;BMP_temperature;BMP_pressure;BME280_temperature;BME280_humidity;BME280_pressure;Samples;Min_cycle;Max_cycle;Signal;HPM_P1;HPM_P2
2022/08/03 00:01:38;;;;;;;5.78;1.67;;;;;;;;;;5049536;28;20025;-73
2022/08/03 00:04:05;;;;;;;5.03;1.50;;;;;;;;;;5053480;28;20037;-74
2022/08/03 00:06:31;;;;;;;5.30;1.25;;;;;;;;;;5048848;28;20067;-74
2022/08/03 00:08:57;;;;;;;2.88;1.20;;;;;;;;;;5059496;28;20119;-73
2022/08/03 00:11:23;;;;;;;2.33;1.10;;;;;;;;;;5052752;28;20033;-74
2022/08/03 00:13:49;;;;;;;4.97;1.30;;;;;;;;;;5056378;28;20048;-74
2022/08/03 00:16:15;;;;;;;2.33;1.23;;;;;;;;;;5058746;28;20074;-74
2022/08/03 00:18:41;;;;;;;2.03;1.10;;;;;;;;;;5052362;28;20076;-74
2022/08/03 00:21:07;;;;;;;2.35;1.23;;;;;;;;;;5054014;28;20040;-74
2022/08/03 00:23:34;;;;;;;3.60;1.00;;;;;;;;;;5039066;28;20064;-73
2022/08/03 00:26:00;;;;;;;3.75;1.05;;;;;;;;;;5044894;28;20033;-74
2022/08/03 00:28:26;;;;;;;3.40;1.00;;;;;;;;;;5044388;28;20801;-74
2022/08/03 00:30:54;;;;;;;3.42;1.10;;;;;;;;;;5044705;28;20051;-74
2022/08/03 00:33:21;;;;;;;1.73;0.90;;;;;;;;;;5047986;28;20029;-74
2022/08/03 00:35:47;;;;;;;4.10;1.25;;;;;;;;;;5046374;28;20021;-74
2022/08/03 00:38:13;;;;;;;2.22;1.10;;;;;;;;;;5047247;28;20060;-74
2022/08/03 00:40:39;;;;;;;3.65;1.17;;;;;;;;;;5058346;28;20037;-74
2022/08/03 00:43:06;;;;;;;6.15;1.30;;;;;;;;;;5044189;28;20024;-74
2022/08/03 00:45:33;;;;;;;2.63;1.13;;;;;;;;;;5041299;28;20032;-74
2022/08/03 00:48:00;;;;;;;3.42;1.23;;;;;;;;;;5036768;28;20032;-73
2022/08/03 00:50:27;;;;;;;5.07;1.05;;;;;;;;;;5049233;28;20702;-73
2022/08/03 00:52:54;;;;;;;2.30;1.05;;;;;;;;;;5043088;28;20086;-73
2022/08/03 00:55:20;;;;;;;2.35;1.30;;;;;;;;;;5043218;28;20036;-73
2022/08/03 00:57:46;;;;;;;2.63;1.27;;;;;;;;;;5042206;28;20191;-73
2022/08/03 01:00:14;;;;;;;3.53;1.10;;;;;;;;;;5043239;28;20049;-73
2022/08/03 01:02:40;;;;;;;3.45;1.50;;;;;;;;;;5045498;28;20048;-74
2022/08/03 01:05:06;;;;;;;3.35;1.42;;;;;;;;;;5046171;28;20166;-73
2022/08/03 01:07:51;;;;;;;2.45;0.98;;;;;;;;;;5045300;28;20132;-74
2022/08/03 01:10:23;;;;;;;3.03;1.40;;;;;;;;;;5051254;28;20111;-74
2022/08/03 01:12:49;;;;;;;;;;;;;;;;;;5051567;28;20029;-74
2022/08/03 01:15:21;;;;;;;5.15;1.73;;;;;;;;;;5054801;28;20512;-74
2022/08/03 01:17:59;;;;;;;7.20;1.60;;;;;;;;;;5045361;28;20506;-74
2022/08/03 01:20:29;;;;;;;2.72;1.27;;;;;;;;;;5050520;28;20048;-74
2022/08/03 01:23:22;;;;;;;7.25;1.63;;;;;;;;;;5053380;28;20044;-74
2022/08/03 01:25:59;;;;;;;4.95;1.20;;;;;;;;;;5046476;28;20483;-74
2022/08/03 01:28:33;;;;;;;3.97;1.20;;;;;;;;;;5054838;28;20029;-73
2022/08/03 01:31:03;;;;;;;3.08;1.10;;;;;;;;;;5051329;28;21019;-73
2022/08/03 01:33:34;;;;;;;4.15;1.40;;;;;;;;;;5047674;28;20617;-74
2022/08/03 01:36:03;;;;;;;3.22;1.27;;;;;;;;;;5052841;28;20378;-73
2022/08/03 01:38:32;;;;;;;6.57;1.33;;;;;;;;;;5046444;28;20120;-73
2022/08/03 01:41:03;;;;;;;3.45;1.33;;;;;;;;;;5059290;28;20046;-74
2022/08/03 01:43:29;;;;;;;3.92;1.25;;;;;;;;;;5048285;28;20068;-74
2022/08/03 01:45:56;;;;;;;4.55;1.67;;;;;;;;;;5046653;28;20034;-74
2022/08/03 01:48:22;;;;;;;3.53;1.55;;;;;;;;;;5047510;28;20025;-74
2022/08/03 01:50:49;;;;;;;3.53;1.42;;;;;;;;;;5052758;28;20033;-73
2022/08/03 01:53:16;;;;;;;3.22;1.42;;;;;;;;;;5050713;28;20033;-73
2022/08/03 01:55:43;;;;;;;6.22;1.50;;;;;;;;;;5041602;28;20079;-73
2022/08/03 01:58:10;;;;;;;7.35;1.30;;;;;;;;;;5055589;28;20036;-73
2022/08/03 02:00:37;;;;;;;3.10;1.20;;;;;;;;;;5045816;28;20384;-73
2022/08/03 02:03:05;;;;;;;2.45;1.10;;;;;;;;;;5055757;28;20032;-73
2022/08/03 02:05:31;;;;;;;3.72;1.25;;;;;;;;;;5051925;28;20056;-74
2022/08/03 02:07:58;;;;;;;2.45;1.10;;;;;;;;;;5044514;28;20028;-73
2022/08/03 02:10:25;;;;;;;7.40;1.17;;;;;;;;;;5051161;28;20037;-73
2022/08/03 02:12:51;;;;;;;4.38;1.30;;;;;;;;;;5051346;28;20025;-74
2022/08/03 02:15:19;;;;;;;3.40;1.20;;;;;;;;;;5049260;28;20045;-74
2022/08/03 02:17:45;;;;;;;3.15;1.13;;;;;;;;;;5049624;28;20044;-74
2022/08/03 02:20:12;;;;;;;4.18;1.33;;;;;;;;;;5045129;28;20405;-74
2022/08/03 02:22:40;;;;;;;2.58;1.25;;;;;;;;;;5053017;28;20123;-74
2022/08/03 02:25:10;;;;;;;2.97;1.20;;;;;;;;;;5048982;28;20037;-74
2022/08/03 02:27:38;;;;;;;2.75;1.30;;;;;;;;;;5053141;28;20044;-73
2022/08/03 02:30:08;;;;;;;3.75;1.20;;;;;;;;;;5056086;28;20385;-73
2022/08/03 02:32:36;;;;;;;4.45;1.20;;;;;;;;;;5049804;28;20540;-73
2022/08/03 02:35:03;;;;;;;4.25;1.40;;;;;;;;;;5054284;28;20032;-74
2022/08/03 02:37:31;;;;;;;2.70;1.20;;;;;;;;;;5053191;28;20037;-74
2022/08/03 02:40:01;;;;;;;4.60;1.08;;;;;;;;;;5056690;28;20046;-74
2022/08/03 02:42:29;;;;;;;3.10;0.98;;;;;;;;;;5051268;28;20037;-73
2022/08/03 02:44:56;;;;;;;4.60;1.52;;;;;;;;;;5044306;28;20102;-73
2022/08/03 02:47:22;;;;;;;2.90;1.10;;;;;;;;;;5053262;28;20039;-73
2022/08/03 02:49:49;;;;;;;3.63;1.15;;;;;;;;;;5050641;28;20352;-73
2022/08/03 02:52:17;;;;;;;4.25;1.00;;;;;;;;;;5052182;28;20485;-74
2022/08/03 02:54:43;;;;;;;4.45;1.48;;;;;;;;;;5054625;28;20068;-74
2022/08/03 02:57:10;;;;;;;5.05;1.55;;;;;;;;;;5049850;28;20041;-73
2022/08/03 02:59:37;;;;;;;3.63;1.30;;;;;;;;;;5047519;28;20048;-73
2022/08/03 03:02:04;;;;;;;4.35;1.35;;;;;;;;;;5045559;28;20065;-73
2022/08/03 03:04:30;;;;;;;4.78;1.63;;;;;;;;;;5050223;28;20047;-73
2022/08/03 03:06:56;;;;;;;2.60;1.33;;;;;;;;;;5046032;28;20033;-73
2022/08/03 03:09:23;;;;;;;5.40;1.50;;;;;;;;;;5057250;28;20025;-74
2022/08/03 03:11:50;;;;;;;5.15;1.50;;;;;;;;;;5050226;28;20044;-73
2022/08/03 03:14:17;;;;;;;4.10;1.10;;;;;;;;;;5053932;28;20040;-73
2022/08/03 03:16:44;;;;;;;4.45;1.35;;;;;;;;;;5051328;28;20044;-74
2022/08/03 03:19:11;;;;;;;3.67;1.52;;;;;;;;;;5053770;28;20032;-73
2022/08/03 03:21:37;;;;;;;2.95;1.10;;;;;;;;;;5046436;28;20504;-73
2022/08/03 03:24:04;;;;;;;4.20;1.67;;;;;;;;;;5054596;28;20040;-74
2022/08/03 03:26:30;;;;;;;3.83;1.40;;;;;;;;;;5051848;28;20025;-74
2022/08/03 03:28:57;;;;;;;3.40;1.50;;;;;;;;;;5052837;28;20486;-74
2022/08/03 03:31:23;;;;;;;3.10;1.35;;;;;;;;;;5054845;28;20037;-73
2022/08/03 03:33:49;;;;;;;3.45;1.40;;;;;;;;;;5049362;28;20032;-74
2022/08/03 03:36:15;;;;;;;4.07;1.20;;;;;;;;;;5051881;28;20041;-73
2022/08/03 03:38:41;;;;;;;3.00;1.35;;;;;;;;;;5047613;28;20060;-73
2022/08/03 03:41:07;;;;;;;3.92;1.20;;;;;;;;;;5053971;28;20095;-73
2022/08/03 03:43:33;;;;;;;3.47;1.50;;;;;;;;;;5044350;28;20887;-73
2022/08/03 03:46:00;;;;;;;2.35;1.20;;;;;;;;;;5050619;28;20041;-74
2022/08/03 03:48:26;;;;;;;4.80;1.40;;;;;;;;;;5046335;28;20025;-73
2022/08/03 03:50:52;;;;;;;3.60;1.30;;;;;;;;;;5048688;28;20037;-74
2022/08/03 03:53:18;;;;;;;7.63;2.20;;;;;;;;;;5049654;28;20502;-73
2022/08/03 03:55:44;;;;;;;4.63;1.45;;;;;;;;;;5049824;28;20037;-73
2022/08/03 03:58:10;;;;;;;4.97;1.50;;;;;;;;;;5049583;28;20031;-73
2022/08/03 04:00:36;;;;;;;3.95;1.33;;;;;;;;;;5048649;28;20044;-73
2022/08/03 04:03:02;;;;;;;4.93;1.90;;;;;;;;;;5052548;28;20035;-73
2022/08/03 04:11:12;;;;;;;4.07;1.27;;;;;;;;;;5054029;28;20052;-73
2022/08/03 04:13:40;;;;;;;3.80;1.50;;;;;;;;;;5052617;28;20436;-73
2022/08/03 04:16:07;;;;;;;3.00;1.20;;;;;;;;;;5049644;28;20118;-73
2022/08/03 04:18:34;;;;;;;3.90;1.83;;;;;;;;;;5055926;28;20102;-73
2022/08/03 04:21:04;;;;;;;2.80;1.25;;;;;;;;;;5044419;28;20037;-74
2022/08/03 04:23:31;;;;;;;5.53;1.30;;;;;;;;;;5044834;28;20108;-73
2022/08/03 04:25:57;;;;;;;6.22;1.50;;;;;;;;;;5046269;28;20033;-73
2022/08/03 04:28:24;;;;;;;2.83;1.25;;;;;;;;;;5038166;28;20087;-73
2022/08/03 04:30:52;;;;;;;3.88;1.50;;;;;;;;;;5051017;28;20036;-73
2022/08/03 04:33:19;;;;;;;4.75;1.85;;;;;;;;;;5047273;28;20108;-73
2022/08/03 04:35:46;;;;;;;4.60;1.55;;;;;;;;;;5052900;28;20115;-74
2022/08/03 04:38:13;;;;;;;6.03;1.40;;;;;;;;;;5037321;28;20099;-74
2022/08/03 04:40:40;;;;;;;3.80;1.85;;;;;;;;;;5041438;28;20047;-73
2022/08/03 04:43:08;;;;;;;3.92;1.63;;;;;;;;;;5042657;28;20492;-74
2022/08/03 04:45:35;;;;;;;3.78;1.75;;;;;;;;;;5046241;28;20051;-73
2022/08/03 04:48:01;;;;;;;4.28;1.52;;;;;;;;;;5047085;28;20648;-73
2022/08/03 04:50:27;;;;;;;4.85;1.67;;;;;;;;;;5046971;28;20029;-74
2022/08/03 04:52:55;;;;;;;4.30;1.52;;;;;;;;;;5045996;28;20032;-73
2022/08/03 04:55:27;;;;;;;6.25;1.42;;;;;;;;;;5044668;28;20051;-73
2022/08/03 04:57:53;;;;;;;5.38;1.65;;;;;;;;;;5044824;28;20028;-74
2022/08/03 05:00:20;;;;;;;3.38;1.30;;;;;;;;;;5048752;28;20053;-73
2022/08/03 05:02:46;;;;;;;5.57;1.52;;;;;;;;;;5045691;28;20402;-73
2022/08/03 05:05:12;;;;;;;7.30;1.73;;;;;;;;;;5057794;28;20055;-73
2022/08/03 05:07:39;;;;;;;9.63;2.03;;;;;;;;;;5051110;28;20032;-73
2022/08/03 05:10:06;;;;;;;6.10;1.98;;;;;;;;;;5046898;28;20407;-73
2022/08/03 05:12:32;;;;;;;8.23;2.05;;;;;;;;;;5055490;28;20036;-73
2022/08/03 05:14:58;;;;;;;9.07;2.63;;;;;;;;;;5048639;28;20028;-73
2022/08/03 05:17:25;;;;;;;6.63;2.20;;;;;;;;;;5055014;28;20086;-73
2022/08/03 05:19:51;;;;;;;5.10;2.28;;;;;;;;;;5058124;28;20129;-73
2022/08/03 05:22:17;;;;;;;6.35;2.15;;;;;;;;;;5052521;28;20143;-73
2022/08/03 05:24:43;;;;;;;10.95;2.50;;;;;;;;;;5051180;28;20194;-73
2022/08/03 05:27:11;;;;;;;5.60;1.98;;;;;;;;;;5050979;28;20128;-73
2022/08/03 05:29:37;;;;;;;13.32;2.42;;;;;;;;;;5054257;28;20063;-73
2022/08/03 05:32:03;;;;;;;6.20;2.63;;;;;;;;;;5048364;28;20511;-73
2022/08/03 05:34:30;;;;;;;14.93;3.35;;;;;;;;;;5049720;28;20044;-73
2022/08/03 05:36:56;;;;;;;9.82;3.00;;;;;;;;;;5058350;28;20041;-73
2022/08/03 05:39:22;;;;;;;6.35;2.55;;;;;;;;;;5054236;28;20396;-73
2022/08/03 05:41:48;;;;;;;7.18;2.63;;;;;;;;;;5048155;28;20036;-73
2022/08/03 05:44:14;;;;;;;6.63;3.20;;;;;;;;;;5049682;28;20041;-74
2022/08/03 05:46:40;;;;;;;7.15;2.65;;;;;;;;;;5045843;28;20510;-74
2022/08/03 05:49:06;;;;;;;7.72;2.97;;;;;;;;;;5052066;28;20032;-74
2022/08/03 05:51:32;;;;;;;5.00;2.13;;;;;;;;;;5045393;28;20029;-74
2022/08/03 05:53:58;;;;;;;8.25;2.55;;;;;;;;;;5038654;28;20029;-73
2022/08/03 05:56:25;;;;;;;5.53;2.15;;;;;;;;;;5039075;28;20039;-73
2022/08/03 05:58:51;;;;;;;8.45;2.03;;;;;;;;;;5040928;28;20210;-73
2022/08/03 06:01:17;;;;;;;7.80;2.35;;;;;;;;;;5047266;28;20083;-73
2022/08/03 06:03:44;;;;;;;8.50;2.63;;;;;;;;;;5037116;28;20114;-73
2022/08/03 06:06:10;;;;;;;7.10;2.30;;;;;;;;;;5042727;28;20033;-73
2022/08/03 06:08:37;;;;;;;6.43;2.45;;;;;;;;;;5038147;28;20103;-73
2022/08/03 06:11:03;;;;;;;9.93;2.50;;;;;;;;;;5041816;28;20119;-72
2022/08/03 06:13:29;;;;;;;8.10;2.03;;;;;;;;;;5040203;28;20079;-73
2022/08/03 06:15:55;;;;;;;8.90;2.55;;;;;;;;;;5041506;28;20030;-73
2022/08/03 06:18:23;;;;;;;8.00;2.58;;;;;;;;;;5039915;28;20054;-73
2022/08/03 06:20:49;;;;;;;6.90;2.08;;;;;;;;;;5039860;28;20037;-74
2022/08/03 06:23:15;;;;;;;6.45;2.33;;;;;;;;;;5041394;28;20447;-73
2022/08/03 06:25:41;;;;;;;9.55;2.20;;;;;;;;;;5043091;28;20035;-73
2022/08/03 06:28:08;;;;;;;6.05;2.35;;;;;;;;;;5043253;28;20036;-73
2022/08/03 06:30:34;;;;;;;7.25;2.35;;;;;;;;;;5042748;28;20036;-73
2022/08/03 06:33:00;;;;;;;8.32;2.47;;;;;;;;;;5042028;28;20266;-73
2022/08/03 06:35:26;;;;;;;6.05;2.40;;;;;;;;;;5046965;28;20044;-73
2022/08/03 06:37:53;;;;;;;5.65;2.25;;;;;;;;;;5042675;28;20033;-73
2022/08/03 06:40:30;;;;;;;7.07;2.00;;;;;;;;;;5047246;28;20068;-73
2022/08/03 06:43:00;;;;;;;7.22;2.42;;;;;;;;;;5046008;28;20070;-74
2022/08/03 06:45:27;;;;;;;12.73;2.47;;;;;;;;;;5044967;28;20037;-74
2022/08/03 06:48:19;;;;;;;6.53;2.42;;;;;;;;;;5046368;28;20040;-74
2022/08/03 06:50:45;;;;;;;4.75;1.70;;;;;;;;;;5040682;28;20045;-74
2022/08/03 06:53:11;;;;;;;5.20;1.75;;;;;;;;;;5044380;28;20025;-74
2022/08/03 06:55:37;;;;;;;6.18;1.70;;;;;;;;;;5047331;28;20036;-74
2022/08/03 06:58:03;;;;;;;6.53;1.40;;;;;;;;;;5046308;28;20756;-73
2022/08/03 07:00:30;;;;;;;7.80;1.25;;;;;;;;;;5045428;28;20045;-74
2022/08/03 07:02:56;;;;;;;5.00;1.65;;;;;;;;;;5041485;28;20029;-74
2022/08/03 07:05:22;;;;;;;9.10;1.90;;;;;;;;;;5048248;28;20033;-74
2022/08/03 07:07:48;;;;;;;8.35;1.70;;;;;;;;;;5042434;28;20033;-74
2022/08/03 07:10:14;;;;;;;4.88;1.38;;;;;;;;;;5049429;28;20104;-74
2022/08/03 07:12:40;;;;;;;4.95;1.48;;;;;;;;;;5042203;28;20032;-74
2022/08/03 07:15:07;;;;;;;6.60;1.90;;;;;;;;;;5043705;28;20064;-74
2022/08/03 07:17:34;;;;;;;7.03;1.63;;;;;;;;;;5041364;28;20052;-74
2022/08/03 07:20:00;;;;;;;5.85;1.52;;;;;;;;;;5046569;28;20024;-74
2022/08/03 07:22:27;;;;;;;4.80;1.70;;;;;;;;;;5046832;28;20497;-74
2022/08/03 07:24:53;;;;;;;7.60;1.63;;;;;;;;;;5048608;28;20516;-74
2022/08/03 07:27:19;;;;;;;5.25;1.90;;;;;;;;;;5046874;28;20405;-74
2022/08/03 07:29:45;;;;;;;5.55;1.60;;;;;;;;;;5047616;28;20047;-74
2022/08/03 07:32:11;;;;;;;6.72;1.83;;;;;;;;;;5046178;28;20033;-74
2022/08/03 07:34:37;;;;;;;5.22;1.55;;;;;;;;;;5046862;28;20037;-74
2022/08/03 07:37:03;;;;;;;5.38;1.58;;;;;;;;;;5041321;28;20532;-74
2022/08/03 07:39:29;;;;;;;6.13;1.70;;;;;;;;;;5041323;28;20510;-74
2022/08/03 07:41:55;;;;;;;9.38;2.08;;;;;;;;;;5045655;28;20482;-74
2022/08/03 07:44:21;;;;;;;7.75;2.13;;;;;;;;;;5043015;28;20048;-74
2022/08/03 07:46:47;;;;;;;5.50;1.60;;;;;;;;;;5047695;28;20029;-74
2022/08/03 07:49:13;;;;;;;4.90;1.73;;;;;;;;;;5044429;28;20037;-74
2022/08/03 07:51:39;;;;;;;4.18;1.65;;;;;;;;;;5044731;28;20069;-74
2022/08/03 07:54:06;;;;;;;6.63;2.17;;;;;;;;;;5043059;28;20040;-74
2022/08/03 07:56:32;;;;;;;5.75;1.77;;;;;;;;;;5047431;28;20044;-74
2022/08/03 07:58:58;;;;;;;9.63;1.60;;;;;;;;;;5047575;28;20045;-74
2022/08/03 08:01:25;;;;;;;5.78;1.52;;;;;;;;;;5043314;28;20044;-74
2022/08/03 08:03:51;;;;;;;6.95;1.60;;;;;;;;;;5046173;28;20049;-74
2022/08/03 08:06:17;;;;;;;3.20;1.42;;;;;;;;;;5041235;28;20094;-74
2022/08/03 08:08:43;;;;;;;5.95;1.30;;;;;;;;;;5044036;28;20029;-74
2022/08/03 08:11:09;;;;;;;8.65;1.70;;;;;;;;;;5043701;28;20107;-74
2022/08/03 08:13:37;;;;;;;4.75;1.50;;;;;;;;;;5045338;28;20029;-74
2022/08/03 08:16:03;;;;;;;5.05;1.60;;;;;;;;;;5046198;28;20029;-74
2022/08/03 08:18:30;;;;;;;5.07;1.48;;;;;;;;;;5051475;28;20071;-74
2022/08/03 08:20:56;;;;;;;6.65;1.40;;;;;;;;;;5048657;28;20032;-74
2022/08/03 08:23:22;;;;;;;5.75;1.55;;;;;;;;;;5048816;28;20033;-74
2022/08/03 08:25:49;;;;;;;4.50;1.40;;;;;;;;;;5045437;28;20029;-74
2022/08/03 08:28:18;;;;;;;5.88;1.45;;;;;;;;;;5048258;28;20075;-74
2022/08/03 08:30:45;;;;;;;6.45;1.58;;;;;;;;;;5048528;28;20040;-73
2022/08/03 08:33:11;;;;;;;3.60;1.40;;;;;;;;;;5046138;28;20108;-74
2022/08/03 08:35:37;;;;;;;6.78;1.80;;;;;;;;;;5048149;28;20569;-74
2022/08/03 08:38:03;;;;;;;8.70;1.35;;;;;;;;;;5049905;28;20036;-74
2022/08/03 08:40:29;;;;;;;5.45;1.25;;;;;;;;;;5050866;28;20082;-74
2022/08/03 08:42:55;;;;;;;6.22;1.70;;;;;;;;;;5049210;28;20060;-74
2022/08/03 08:45:22;;;;;;;4.63;1.30;;;;;;;;;;5046465;28;20052;-74
2022/08/03 08:47:48;;;;;;;4.45;1.50;;;;;;;;;;5047396;28;20462;-74
2022/08/03 08:50:18;;;;;;;5.57;1.60;;;;;;;;;;5049167;28;20536;-74
2022/08/03 08:52:45;;;;;;;5.45;1.80;;;;;;;;;;5043581;28;20111;-74
2022/08/03 08:55:15;;;;;;;6.78;1.60;;;;;;;;;;5050488;28;20356;-74
2022/08/03 08:57:48;;;;;;;6.80;1.60;;;;;;;;;;5049632;28;20510;-74
2022/08/03 09:00:15;;;;;;;7.97;1.83;;;;;;;;;;5048148;28;20044;-74
2022/08/03 09:02:42;;;;;;;5.68;1.58;;;;;;;;;;5047685;28;21065;-74
2022/08/03 09:05:15;;;;;;;7.65;1.80;;;;;;;;;;5051112;28;20070;-74
2022/08/03 09:07:42;;;;;;;8.55;2.53;;;;;;;;;;5047482;28;20032;-74
2022/08/03 09:10:08;;;;;;;6.00;1.90;;;;;;;;;;5050294;28;20096;-74
2022/08/03 09:12:39;;;;;;;9.32;1.75;;;;;;;;;;5048602;28;20036;-74
2022/08/03 09:15:24;;;;;;;4.78;1.70;;;;;;;;;;5049324;28;20029;-74
2022/08/03 09:17:51;;;;;;;7.35;1.73;;;;;;;;;;5045955;28;20075;-74
2022/08/03 09:20:18;;;;;;;3.83;1.20;;;;;;;;;;5048557;28;20044;-74
2022/08/03 09:23:00;;;;;;;7.43;1.67;;;;;;;;;;5049311;28;20112;-74
2022/08/03 09:25:33;;;;;;;6.35;1.75;;;;;;;;;;5046392;28;20036;-74
2022/08/03 09:28:04;;;;;;;6.07;1.77;;;;;;;;;;5044160;28;20033;-74
2022/08/03 09:30:30;;;;;;;8.00;2.15;;;;;;;;;;5046049;28;20040;-74
2022/08/03 09:33:00;;;;;;;6.50;1.50;;;;;;;;;;5046244;28;20025;-74
2022/08/03 09:35:30;;;;;;;6.63;1.60;;;;;;;;;;5046299;28;20851;-74
2022/08/03 09:38:09;;;;;;;3.78;1.45;;;;;;;;;;5047738;28;20049;-74
2022/08/03 09:40:35;;;;;;;7.55;1.63;;;;;;;;;;5042632;28;20029;-74
2022/08/03 09:43:01;;;;;;;8.35;1.55;;;;;;;;;;5051512;28;20544;-74
2022/08/03 09:45:28;;;;;;;7.25;2.17;;;;;;;;;;5051013;28;20044;-74
2022/08/03 09:47:56;;;;;;;5.05;1.58;;;;;;;;;;5046515;28;20025;-74
2022/08/03 09:50:22;;;;;;;5.63;1.63;;;;;;;;;;5046902;28;20104;-74
2022/08/03 09:52:50;;;;;;;5.88;1.17;;;;;;;;;;5045304;28;20094;-74
2022/08/03 09:55:19;;;;;;;5.75;1.20;;;;;;;;;;5047431;28;20259;-74
2022/08/03 09:57:45;;;;;;;4.45;1.40;;;;;;;;;;5050165;28;20569;-74
2022/08/03 10:00:15;;;;;;;6.82;1.50;;;;;;;;;;5047717;28;20561;-74
2022/08/03 10:02:42;;;;;;;3.70;1.17;;;;;;;;;;5053563;28;20033;-74
2022/08/03 10:05:09;;;;;;;7.78;1.67;;;;;;;;;;5043982;28;20033;-74
2022/08/03 10:07:44;;;;;;;3.47;1.27;;;;;;;;;;5051364;28;20503;-74
2022/08/03 10:10:11;;;;;;;5.82;1.30;;;;;;;;;;5048670;28;20025;-74
2022/08/03 10:12:38;;;;;;;6.93;1.25;;;;;;;;;;5048532;28;20041;-74
2022/08/03 10:15:04;;;;;;;4.00;1.45;;;;;;;;;;5045440;28;20037;-74
2022/08/03 10:17:30;;;;;;;2.13;1.13;;;;;;;;;;5045928;28;20592;-74
2022/08/03 10:19:57;;;;;;;8.52;1.30;;;;;;;;;;5044939;28;20121;-74
2022/08/03 10:22:26;;;;;;;5.03;1.10;;;;;;;;;;5045526;28;20060;-74
2022/08/03 10:24:54;;;;;;;5.82;1.27;;;;;;;;;;5044584;28;20039;-74
2022/08/03 10:27:21;;;;;;;4.97;1.30;;;;;;;;;;5046021;28;20029;-74
2022/08/03 10:29:51;;;;;;;4.78;1.40;;;;;;;;;;5047923;28;20067;-74
2022/08/03 10:32:31;;;;;;;5.28;1.15;;;;;;;;;;5047764;28;20041;-74
2022/08/03 10:35:02;;;;;;;3.55;1.20;;;;;;;;;;5049044;28;20047;-74
2022/08/03 10:37:29;;;;;;;6.10;1.40;;;;;;;;;;5042976;28;20473;-74
2022/08/03 10:39:57;;;;;;;5.35;1.50;;;;;;;;;;5045184;28;20079;-74
2022/08/03 10:42:24;;;;;;;4.93;1.10;;;;;;;;;;5044139;28;20117;-74
2022/08/03 10:44:55;;;;;;;6.13;1.30;;;;;;;;;;5046744;28;20086;-74
2022/08/03 10:47:21;;;;;;;5.32;1.38;;;;;;;;;;5044389;28;20033;-74
2022/08/03 10:49:48;;;;;;;4.57;1.00;;;;;;;;;;5047961;28;20028;-75
2022/08/03 10:52:14;;;;;;;4.80;1.00;;;;;;;;;;5043469;28;20068;-74
2022/08/03 10:57:45;;;;;;;4.80;1.02;;;;;;;;;;5046437;28;20039;-74
2022/08/03 11:00:15;;;;;;;6.10;1.05;;;;;;;;;;5048968;28;20049;-75
2022/08/03 11:03:00;;;;;;;2.63;1.05;;;;;;;;;;5042795;28;20032;-74
2022/08/03 11:05:29;;;;;;;3.95;1.20;;;;;;;;;;5046182;28;20390;-74
2022/08/03 11:08:14;;;;;;;7.35;1.27;;;;;;;;;;5042092;28;20021;-74
2022/08/03 11:10:40;;;;;;;7.68;1.42;;;;;;;;;;5043510;28;20078;-74
2022/08/03 11:13:06;;;;;;;4.20;1.02;;;;;;;;;;5044385;28;20036;-75
2022/08/03 11:15:34;;;;;;;3.05;1.30;;;;;;;;;;5045995;28;20041;-74
2022/08/03 11:18:11;;;;;;;2.63;1.00;;;;;;;;;;5050883;28;20064;-74
2022/08/03 11:20:47;;;;;;;6.32;1.23;;;;;;;;;;5042434;28;20052;-74
2022/08/03 11:23:13;;;;;;;3.28;0.90;;;;;;;;;;5045367;28;20028;-74
2022/08/03 11:25:58;;;;;;;3.92;1.23;;;;;;;;;;5050051;28;20041;-74
2022/08/03 11:28:26;;;;;;;4.85;1.33;;;;;;;;;;5044030;28;20036;-74
2022/08/03 11:30:52;;;;;;;4.03;1.27;;;;;;;;;;5039447;28;20102;-74
2022/08/03 11:33:44;;;;;;;5.55;1.15;;;;;;;;;;5041149;28;20025;-74
2022/08/03 11:36:10;;;;;;;4.80;1.02;;;;;;;;;;5045017;28;20133;-74
2022/08/03 11:38:56;;;;;;;7.43;0.85;;;;;;;;;;5045112;28;20908;-74
2022/08/03 11:41:34;;;;;;;5.05;0.95;;;;;;;;;;5048074;28;20044;-74
2022/08/03 11:44:00;;;;;;;4.78;0.80;;;;;;;;;;5047132;28;20017;-74
2022/08/03 11:46:26;;;;;;;4.78;1.10;;;;;;;;;;5047867;28;20401;-74
2022/08/03 11:48:57;;;;;;;3.65;1.15;;;;;;;;;;5046468;28;20029;-74
2022/08/03 11:51:23;;;;;;;5.45;0.82;;;;;;;;;;5046493;28;20120;-74
2022/08/03 11:53:57;;;;;;;3.13;1.08;;;;;;;;;;5052751;28;20029;-74
2022/08/03 11:56:23;;;;;;;3.35;0.73;;;;;;;;;;5047694;28;20037;-74
2022/08/03 11:58:54;;;;;;;4.55;1.10;;;;;;;;;;5045631;28;20114;-74
2022/08/03 12:01:21;;;;;;;2.10;0.90;;;;;;;;;;5049452;28;20033;-74
2022/08/03 12:03:47;;;;;;;5.07;0.85;;;;;;;;;;5053112;28;20969;-74
2022/08/03 12:06:15;;;;;;;2.08;0.80;;;;;;;;;;5045843;28;20051;-74
2022/08/03 12:08:41;;;;;;;3.33;1.05;;;;;;;;;;5051218;28;20031;-74
2022/08/03 12:11:09;;;;;;;2.35;0.80;;;;;;;;;;5048674;28;20119;-74
2022/08/03 12:13:46;;;;;;;4.75;0.95;;;;;;;;;;5049476;28;20037;-74
2022/08/03 12:16:21;;;;;;;5.05;1.20;;;;;;;;;;5047287;28;20043;-74
2022/08/03 12:19:06;;;;;;;3.45;0.80;;;;;;;;;;5053379;28;20124;-74
2022/08/03 12:21:33;;;;;;;5.32;1.00;;;;;;;;;;5048203;28;20044;-74
2022/08/03 12:24:00;;;;;;;3.67;0.80;;;;;;;;;;5050196;28;20028;-75
2022/08/03 12:26:27;;;;;;;3.05;1.00;;;;;;;;;;5053415;28;20497;-74
2022/08/03 12:28:53;;;;;;;1.88;0.90;;;;;;;;;;5051226;28;20478;-74
2022/08/03 12:31:19;;;;;;;2.78;0.80;;;;;;;;;;5049253;28;20535;-75
2022/08/03 12:34:00;;;;;;;2.90;0.70;;;;;;;;;;5049130;28;20036;-74
2022/08/03 12:36:27;;;;;;;3.47;0.73;;;;;;;;;;5052099;28;20036;-74
2022/08/03 12:38:56;;;;;;;6.72;0.98;;;;;;;;;;5047676;28;20799;-74
2022/08/03 12:41:29;;;;;;;7.75;1.00;;;;;;;;;;5049702;28;20438;-74
2022/08/03 12:43:56;;;;;;;6.85;0.77;;;;;;;;;;5044004;28;20040;-74
2022/08/03 12:46:22;;;;;;;2.30;0.70;;;;;;;;;;5049220;28;20121;-74
2022/08/03 12:49:02;;;;;;;1.45;0.73;;;;;;;;;;5046605;28;20056;-74
2022/08/03 12:51:29;;;;;;;2.20;0.80;;;;;;;;;;5051398;28;20040;-74
2022/08/03 12:53:55;;;;;;;3.20;0.80;;;;;;;;;;5050325;28;20029;-74
2022/08/03 12:56:22;;;;;;;3.55;0.75;;;;;;;;;;5050636;28;20037;-74
2022/08/03 12:58:49;;;;;;;1.40;0.70;;;;;;;;;;5045977;28;20402;-74
2022/08/03 13:01:15;;;;;;;3.85;1.30;;;;;;;;;;5048326;28;20038;-74
2022/08/03 13:03:42;;;;;;;3.28;0.70;;;;;;;;;;5044903;28;20043;-75
2022/08/03 13:06:15;;;;;;;5.00;0.80;;;;;;;;;;5049436;28;20048;-74
2022/08/03 13:08:42;;;;;;;1.45;0.60;;;;;;;;;;5046969;28;20470;-74
2022/08/03 13:11:17;;;;;;;4.03;0.80;;;;;;;;;;5050184;28;20061;-74
2022/08/03 13:13:43;;;;;;;4.05;0.68;;;;;;;;;;5046585;28;20072;-74
2022/08/03 13:16:09;;;;;;;1.70;0.63;;;;;;;;;;5047616;28;20040;-74
2022/08/03 13:18:35;;;;;;;2.28;0.60;;;;;;;;;;5050180;28;20025;-74
2022/08/03 13:21:01;;;;;;;1.55;0.50;;;;;;;;;;5050306;28;20033;-74
2022/08/03 13:23:27;;;;;;;2.42;0.60;;;;;;;;;;5045839;28;20048;-74
2022/08/03 13:25:53;;;;;;;3.22;0.70;;;;;;;;;;5048112;28;20675;-74
2022/08/03 13:28:19;;;;;;;1.35;0.50;;;;;;;;;;5043886;28;20037;-74
2022/08/03 13:30:45;;;;;;;3.95;0.82;;;;;;;;;;5047037;28;20362;-74
2022/08/03 13:33:11;;;;;;;2.05;0.70;;;;;;;;;;5048320;28;20056;-74
2022/08/03 13:35:38;;;;;;;1.38;0.82;;;;;;;;;;5047581;28;20109;-74
2022/08/03 13:38:04;;;;;;;2.25;0.80;;;;;;;;;;5049728;28;20029;-74
2022/08/03 13:40:31;;;;;;;3.60;0.65;;;;;;;;;;5049832;28;20033;-74
2022/08/03 13:42:57;;;;;;;1.83;0.65;;;;;;;;;;5048519;28;20040;-74
2022/08/03 13:45:23;;;;;;;1.98;0.73;;;;;;;;;;5045309;28;20114;-74
2022/08/03 13:47:49;;;;;;;6.40;0.70;;;;;;;;;;5047876;28;20025;-75
2022/08/03 13:50:15;;;;;;;2.97;0.90;;;;;;;;;;5047126;28;20112;-74
2022/08/03 13:52:42;;;;;;;6.07;0.70;;;;;;;;;;5046944;28;20146;-74
2022/08/03 13:55:08;;;;;;;3.22;0.70;;;;;;;;;;5046464;28;20040;-74
2022/08/03 13:57:34;;;;;;;3.15;0.52;;;;;;;;;;5048995;28;20120;-74
2022/08/03 14:00:01;;;;;;;1.45;0.70;;;;;;;;;;5048595;28;20052;-74
2022/08/03 14:02:27;;;;;;;6.47;0.80;;;;;;;;;;5045605;28;20660;-74
2022/08/03 14:04:53;;;;;;;2.20;0.70;;;;;;;;;;5047511;28;20065;-74
2022/08/03 14:07:19;;;;;;;4.78;0.60;;;;;;;;;;5043957;28;20696;-74
2022/08/03 14:09:45;;;;;;;4.78;0.70;;;;;;;;;;5042980;28;20044;-74
2022/08/03 14:12:11;;;;;;;3.30;0.70;;;;;;;;;;5046475;28;20029;-74
2022/08/03 14:14:37;;;;;;;2.42;0.77;;;;;;;;;;5049184;28;20147;-75
2022/08/03 14:17:03;;;;;;;4.00;0.80;;;;;;;;;;5045411;28;20140;-74
2022/08/03 14:19:29;;;;;;;3.85;0.80;;;;;;;;;;5050740;28;20043;-74
2022/08/03 14:21:55;;;;;;;2.22;0.70;;;;;;;;;;5045903;28;20040;-74
2022/08/03 14:24:21;;;;;;;3.85;0.60;;;;;;;;;;5050613;28;20044;-74
2022/08/03 14:26:47;;;;;;;4.05;0.90;;;;;;;;;;5049205;28;20028;-74
2022/08/03 14:29:14;;;;;;;1.88;0.60;;;;;;;;;;5044150;28;20032;-74
2022/08/03 14:31:40;;;;;;;2.00;0.60;;;;;;;;;;5043235;28;20029;-74
2022/08/03 14:34:06;;;;;;;5.55;0.80;;;;;;;;;;5043026;28;20087;-74
2022/08/03 14:36:32;;;;;;;1.98;0.80;;;;;;;;;;5048883;28;20040;-74
2022/08/03 14:38:58;;;;;;;2.35;0.70;;;;;;;;;;5045950;28;20112;-74
2022/08/03 14:41:24;;;;;;;5.18;0.75;;;;;;;;;;5046677;28;20105;-74
2022/08/03 14:43:50;;;;;;;3.17;0.70;;;;;;;;;;5045096;28;20021;-75
2022/08/03 14:46:16;;;;;;;2.63;0.70;;;;;;;;;;5040496;28;20383;-74
2022/08/03 14:48:42;;;;;;;2.00;0.60;;;;;;;;;;5044579;28;20040;-74
2022/08/03 14:51:08;;;;;;;3.03;0.70;;;;;;;;;;5044213;28;20037;-74
2022/08/03 14:53:34;;;;;;;3.47;0.80;;;;;;;;;;5043316;28;20029;-74
2022/08/03 14:56:01;;;;;;;4.85;0.80;;;;;;;;;;5043699;28;20137;-74